createdAt,value
2023-03-22T00:01:37.655Z,7.13
2023-03-22T00:04:24.549Z,8.15
2023-03-22T00:07:11.435Z,7.70
2023-03-22T00:09:58.223Z,7.60
2023-03-22T00:12:45.109Z,8.35
2023-03-22T00:15:32.399Z,8.18
2023-03-22T00:18:19.455Z,7.10
2023-03-22T00:21:13.728Z,8.25
2023-03-22T00:24:00.584Z,9.07
2023-03-22T00:26:47.526Z,7.88
2023-03-22T00:29:34.364Z,9.50
2023-03-22T00:32:21.233Z,7.72
2023-03-22T00:35:09.488Z,7.68
2023-03-22T00:37:56.368Z,8.00
2023-03-22T00:40:43.208Z,7.45
2023-03-22T00:43:30.200Z,7.40
2023-03-22T00:46:19.922Z,8.20
2023-03-22T00:49:06.830Z,7.22
2023-03-22T00:51:53.963Z,8.18
2023-03-22T00:54:40.978Z,8.18
2023-03-22T00:57:27.794Z,8.05
2023-03-22T01:00:16.385Z,9.02
2023-03-22T01:03:05.081Z,8.57
2023-03-22T01:05:55.553Z,8.32
2023-03-22T01:08:42.469Z,8.38
2023-03-22T01:11:29.307Z,8.23
2023-03-22T01:14:16.283Z,9.32
2023-03-22T01:17:03.559Z,7.40
2023-03-22T01:19:50.405Z,7.72
2023-03-22T01:22:37.364Z,7.55
2023-03-22T01:25:24.665Z,6.65
2023-03-22T01:28:11.537Z,5.93
2023-03-22T01:31:01.809Z,7.20
2023-03-22T01:33:48.761Z,7.05
2023-03-22T01:36:36.763Z,7.60
2023-03-22T01:39:23.622Z,10.30
2023-03-22T01:42:14.300Z,7.72
2023-03-22T01:45:30.416Z,7.22
2023-03-22T01:48:19.024Z,6.55
2023-03-22T01:51:26.384Z,7.13
2023-03-22T01:54:18.117Z,7.30
2023-03-22T01:57:04.959Z,7.32
2023-03-22T01:59:51.852Z,7.47
2023-03-22T02:02:38.885Z,6.75
2023-03-22T02:05:25.982Z,7.45
2023-03-22T02:08:15.147Z,7.30
2023-03-22T02:11:03.854Z,6.95
2023-03-22T02:14:12.537Z,7.13
2023-03-22T02:17:27.712Z,6.78
2023-03-22T02:20:49.702Z,6.50
2023-03-22T02:24:05.541Z,6.70
2023-03-22T02:27:16.305Z,6.75
2023-03-22T02:30:24.906Z,6.28
2023-03-22T02:33:11.730Z,7.40
2023-03-22T02:36:22.773Z,7.47
2023-03-22T02:39:16.532Z,8.05
2023-03-22T02:42:28.628Z,6.75
2023-03-22T02:45:23.425Z,6.88
2023-03-22T02:48:18.883Z,6.53
2023-03-22T02:51:11.820Z,8.98
2023-03-22T02:54:21.766Z,7.22
2023-03-22T02:57:15.716Z,7.07
2023-03-22T03:00:10.503Z,6.70
2023-03-22T03:03:00.229Z,7.10
2023-03-22T03:05:49.916Z,6.80
2023-03-22T03:08:37.880Z,6.63
2023-03-22T03:11:25.305Z,7.05
2023-03-22T03:14:25.991Z,7.90
2023-03-22T03:17:18.890Z,6.00
2023-03-22T03:20:24.719Z,8.57
2023-03-22T03:23:18.102Z,7.32
2023-03-22T03:26:28.737Z,7.30
2023-03-22T03:29:34.271Z,6.97
2023-03-22T03:32:31.572Z,6.20
2023-03-22T03:35:25.583Z,7.10
2023-03-22T03:38:17.533Z,8.50
2023-03-22T03:41:07.292Z,8.10
2023-03-22T03:43:56.133Z,6.78
2023-03-22T03:46:44.458Z,7.82
2023-03-22T03:49:31.304Z,7.03
2023-03-22T03:52:18.440Z,6.78
2023-03-22T03:55:06.204Z,7.65
2023-03-22T03:57:53.093Z,7.53
2023-03-22T04:00:40.335Z,6.90
2023-03-22T04:03:27.337Z,6.38
2023-03-22T04:06:14.405Z,6.15
2023-03-22T04:09:01.754Z,7.57
2023-03-22T04:11:48.637Z,5.95
2023-03-22T04:14:35.732Z,8.40
2023-03-22T04:17:23.033Z,6.95
2023-03-22T04:20:11.220Z,8.10
2023-03-22T04:23:00.264Z,7.57
2023-03-22T04:28:37.090Z,7.25
2023-03-22T04:31:27.144Z,8.27
2023-03-22T04:34:14.059Z,6.47
2023-03-22T04:37:02.693Z,7.05
2023-03-22T04:39:49.610Z,6.80
2023-03-22T04:42:36.573Z,7.80
2023-03-22T04:45:24.028Z,7.85
2023-03-22T04:48:11.381Z,7.05
2023-03-22T04:50:58.351Z,7.85
2023-03-22T04:53:45.203Z,6.75
2023-03-22T04:56:32.315Z,6.68
2023-03-22T04:59:20.331Z,6.97
2023-03-22T05:02:07.276Z,7.63
2023-03-22T05:04:54.140Z,7.50
2023-03-22T05:07:41.544Z,7.30
2023-03-22T05:10:28.400Z,7.28
2023-03-22T05:13:15.410Z,7.97
2023-03-22T05:16:02.335Z,7.57
2023-03-22T05:18:50.057Z,7.85
2023-03-22T05:21:40.315Z,7.80
2023-03-22T05:24:27.668Z,7.35
2023-03-22T05:27:14.524Z,7.93
2023-03-22T05:30:02.233Z,8.07
2023-03-22T05:32:49.630Z,7.75
2023-03-22T05:35:39.263Z,8.13
2023-03-22T05:38:26.238Z,7.93
2023-03-22T05:41:13.760Z,9.13
2023-03-22T05:44:01.080Z,7.93
2023-03-22T05:46:48.017Z,8.77
2023-03-22T05:49:34.968Z,8.10
2023-03-22T05:52:21.858Z,8.32
2023-03-22T05:55:09.299Z,8.00
2023-03-22T05:57:56.633Z,7.60
2023-03-22T06:00:43.940Z,8.88
2023-03-22T06:03:31.276Z,7.45
2023-03-22T06:06:18.154Z,8.02
2023-03-22T06:09:16.242Z,8.75
2023-03-22T06:14:50.823Z,8.18
2023-03-22T06:17:37.879Z,9.05
2023-03-22T06:20:25.678Z,8.13
2023-03-22T06:23:12.543Z,8.07
2023-03-22T06:25:59.596Z,11.52
2023-03-22T06:28:47.022Z,11.20
2023-03-22T06:31:33.866Z,10.23
2023-03-22T06:34:20.744Z,10.57
2023-03-22T06:37:07.558Z,11.98
2023-03-22T06:39:54.450Z,12.45
2023-03-22T06:42:41.321Z,11.18
2023-03-22T06:45:33.546Z,10.13
2023-03-22T06:48:20.675Z,10.52
2023-03-22T06:51:07.631Z,10.38
2023-03-22T06:53:54.564Z,10.07
2023-03-22T06:56:41.560Z,10.90
2023-03-22T06:59:28.471Z,11.45
2023-03-22T07:02:15.462Z,11.75
2023-03-22T07:05:02.356Z,10.20
2023-03-22T07:07:49.293Z,11.13
2023-03-22T07:10:36.146Z,9.80
2023-03-22T07:13:23.025Z,9.90
2023-03-22T07:16:10.321Z,10.80
2023-03-22T07:18:57.490Z,9.82
2023-03-22T07:21:44.459Z,10.05
2023-03-22T07:24:31.467Z,9.77
2023-03-22T07:27:19.156Z,10.30
2023-03-22T07:30:09.026Z,9.98
2023-03-22T07:32:56.573Z,10.45
2023-03-22T07:35:43.487Z,9.73
2023-03-22T07:38:30.521Z,10.80
2023-03-22T07:41:18.368Z,10.80
2023-03-22T07:44:17.381Z,10.52
2023-03-22T07:47:05.405Z,9.55
2023-03-22T07:49:52.483Z,11.25
2023-03-22T07:52:40.558Z,11.20
2023-03-22T07:55:27.437Z,10.18
2023-03-22T07:58:15.064Z,9.75
2023-03-22T08:01:09.087Z,9.88
2023-03-22T08:03:55.965Z,10.23
2023-03-22T08:06:42.847Z,9.98
2023-03-22T08:09:29.758Z,11.43
2023-03-22T08:12:16.843Z,9.77
2023-03-22T08:15:04.060Z,10.45
2023-03-22T08:17:50.972Z,10.13
2023-03-22T08:20:38.342Z,9.90
2023-03-22T08:23:40.536Z,9.65
2023-03-22T08:26:28.372Z,9.88
2023-03-22T08:29:16.109Z,9.15
2023-03-22T08:32:04.400Z,10.23
2023-03-22T08:34:52.793Z,9.52
2023-03-22T08:37:40.337Z,10.80
2023-03-22T08:40:27.376Z,12.48
2023-03-22T08:43:14.316Z,9.20
2023-03-22T08:46:01.171Z,9.85
2023-03-22T08:48:50.812Z,11.90
2023-03-22T08:51:39.415Z,10.43
2023-03-22T08:54:28.095Z,9.68
2023-03-22T08:57:16.524Z,10.65
2023-03-22T09:00:06.791Z,9.48
2023-03-22T09:02:53.652Z,9.60
2023-03-22T09:05:40.994Z,10.75
2023-03-22T09:08:29.187Z,10.85
2023-03-22T09:11:17.951Z,10.98
2023-03-22T09:14:04.995Z,9.35
2023-03-22T09:16:51.870Z,10.02
2023-03-22T09:19:38.753Z,8.93
2023-03-22T09:22:25.576Z,9.57
2023-03-22T09:25:13.290Z,8.82
2023-03-22T09:28:00.239Z,10.60
2023-03-22T09:30:47.159Z,11.27
2023-03-22T09:33:35.604Z,9.57
2023-03-22T09:36:22.459Z,9.98
2023-03-22T09:39:10.115Z,9.40
2023-03-22T09:42:02.612Z,9.77
2023-03-22T09:44:51.137Z,10.32
2023-03-22T09:47:45.064Z,10.60
2023-03-22T09:50:32.810Z,9.30
2023-03-22T09:53:20.590Z,8.85
2023-03-22T09:56:17.954Z,8.77
2023-03-22T09:59:23.060Z,9.13
2023-03-22T10:02:39.773Z,8.82
2023-03-22T10:05:37.929Z,8.38
2023-03-22T10:08:42.109Z,7.68
2023-03-22T10:11:35.066Z,8.90
2023-03-22T10:14:28.284Z,7.80
2023-03-22T10:17:18.453Z,7.75
2023-03-22T10:20:17.477Z,8.77
2023-03-22T10:23:06.721Z,8.55
2023-03-22T10:25:53.954Z,8.80
2023-03-22T10:28:44.043Z,9.07
2023-03-22T10:31:32.108Z,8.18
2023-03-22T10:34:22.568Z,8.80
2023-03-22T10:37:15.968Z,8.60
2023-03-22T10:40:08.415Z,7.80
2023-03-22T10:43:00.085Z,7.75
2023-03-22T10:45:47.164Z,8.25
2023-03-22T10:48:42.592Z,8.32
2023-03-22T10:51:34.657Z,6.55
2023-03-22T10:54:21.951Z,7.00
2023-03-22T10:57:08.809Z,7.15
2023-03-22T10:59:57.181Z,6.97
2023-03-22T11:02:51.510Z,7.65
2023-03-22T11:05:38.632Z,6.03
2023-03-22T11:08:25.623Z,6.60
2023-03-22T11:11:18.283Z,7.43
2023-03-22T11:14:05.025Z,5.82
2023-03-22T11:16:58.513Z,6.13
2023-03-22T11:20:02.206Z,6.85
2023-03-22T11:22:49.466Z,6.05
2023-03-22T11:25:38.872Z,5.88
2023-03-22T11:28:35.444Z,5.63
2023-03-22T11:31:24.645Z,6.10
2023-03-22T11:34:17.952Z,5.47
2023-03-22T11:37:08.013Z,5.40
2023-03-22T11:40:00.279Z,6.05
2023-03-22T11:42:47.929Z,7.38
2023-03-22T11:45:37.504Z,6.10
2023-03-22T11:48:27.539Z,5.95
2023-03-22T11:51:18.025Z,4.50
2023-03-22T11:54:08.770Z,6.25
2023-03-22T11:56:59.073Z,4.72
2023-03-22T11:59:49.017Z,4.95
2023-03-22T12:02:41.747Z,5.25
2023-03-22T12:05:31.552Z,5.25
2023-03-22T12:08:42.824Z,4.93
2023-03-22T12:11:34.379Z,5.68
2023-03-22T12:14:33.355Z,5.85
2023-03-22T12:17:37.632Z,3.67
2023-03-22T12:20:30.563Z,4.53
2023-03-22T12:23:23.223Z,4.82
2023-03-22T12:26:10.395Z,4.22
2023-03-22T12:29:00.704Z,4.03
2023-03-22T12:32:09.842Z,4.03
2023-03-22T12:35:05.424Z,5.65
2023-03-22T12:38:11.182Z,2.83
2023-03-22T12:41:01.785Z,3.75
2023-03-22T12:43:53.514Z,4.70
2023-03-22T12:46:49.350Z,4.15
2023-03-22T12:49:40.505Z,3.88
2023-03-22T12:52:45.626Z,5.07
2023-03-22T12:55:36.085Z,4.13
2023-03-22T12:58:24.286Z,3.58
2023-03-22T13:01:12.965Z,3.85
2023-03-22T13:03:59.948Z,4.85
2023-03-22T13:06:47.780Z,3.05
2023-03-22T13:09:41.924Z,3.88
2023-03-22T13:12:31.718Z,3.83
2023-03-22T13:15:41.747Z,3.08
2023-03-22T13:18:37.639Z,3.33
2023-03-22T13:21:29.876Z,2.45
2023-03-22T13:24:16.676Z,3.45
2023-03-22T13:27:07.385Z,3.20
2023-03-22T13:29:57.950Z,2.13
2023-03-22T13:32:52.575Z,2.97
2023-03-22T13:35:54.282Z,3.70
2023-03-22T13:38:42.923Z,2.83
2023-03-22T13:44:31.115Z,2.67
2023-03-22T13:47:36.520Z,3.65
2023-03-22T13:50:28.472Z,4.72
2023-03-22T13:53:21.558Z,3.47
2023-03-22T13:56:12.569Z,2.00
2023-03-22T13:58:59.939Z,4.35
2023-03-22T14:01:51.567Z,3.30
2023-03-22T14:04:51.070Z,4.15
2023-03-22T14:07:47.211Z,3.20
2023-03-22T14:10:44.580Z,3.25
2023-03-22T14:13:46.499Z,2.10
2023-03-22T14:16:49.233Z,3.92
2023-03-22T14:19:36.344Z,2.00
